createdAt,value
2019-05-28T00:00:01.540Z,82.73
2019-05-28T00:00:52.205Z,83.09
2019-05-28T00:01:51.199Z,82.73
2019-05-28T00:02:51.188Z,83.03
2019-05-28T00:03:51.173Z,83.03
2019-05-28T00:04:51.161Z,83.13
2019-05-28T00:05:51.159Z,83.54
2019-05-28T00:06:51.153Z,83.64
2019-05-28T00:07:51.126Z,83.54
2019-05-28T00:08:51.128Z,84.14
2019-05-28T00:09:51.105Z,83.84
2019-05-28T00:10:51.095Z,83.84
2019-05-28T00:11:51.099Z,82.83
2019-05-28T00:12:51.134Z,83.64
2019-05-28T00:13:51.081Z,83.13
2019-05-28T00:14:51.056Z,83.44
2019-05-28T00:15:51.045Z,82.62
2019-05-28T00:16:51.056Z,82.93
2019-05-28T00:17:51.026Z,82.32
2019-05-28T00:18:51.008Z,81.82
2019-05-28T00:19:50.994Z,81.82
2019-05-28T00:20:50.982Z,81.51
2019-05-28T00:21:50.995Z,81.41
2019-05-28T00:22:50.969Z,81.65
2019-05-28T00:23:50.972Z,81.62
2019-05-28T00:24:50.949Z,81.45
2019-05-28T00:25:50.934Z,81.41
2019-05-28T00:26:50.924Z,81.45
2019-05-28T00:27:50.932Z,81.45
2019-05-28T00:28:50.907Z,81.55
2019-05-28T00:29:50.893Z,81.62
2019-05-28T00:30:50.878Z,81.55
2019-05-28T00:31:50.864Z,81.45
2019-05-28T00:32:50.931Z,81.65
2019-05-28T00:33:50.847Z,81.96
2019-05-28T00:34:50.904Z,81.45
2019-05-28T00:35:50.832Z,80.34
2019-05-28T00:36:50.829Z,80.54
2019-05-28T00:37:50.823Z,79.93
2019-05-28T00:38:50.792Z,79.73
2019-05-28T00:39:50.781Z,79.77
2019-05-28T00:40:50.778Z,79.67
2019-05-28T00:41:50.768Z,80.18
2019-05-28T00:42:50.768Z,80.68
2019-05-28T00:43:50.749Z,80.58
2019-05-28T00:44:50.736Z,80.58
2019-05-28T00:45:50.718Z,80.18
2019-05-28T00:46:50.712Z,79.97
2019-05-28T00:47:50.720Z,80.07
2019-05-28T00:48:50.692Z,80.41
2019-05-28T00:49:50.683Z,80.72
2019-05-28T00:50:50.662Z,80.92
2019-05-28T00:51:50.659Z,80.62
2019-05-28T00:52:50.656Z,80.82
2019-05-28T00:53:50.644Z,81.12
2019-05-28T00:54:50.630Z,81.93
2019-05-28T00:55:50.629Z,81.73
2019-05-28T00:56:50.608Z,81.73
2019-05-28T00:57:50.610Z,81.73
2019-05-28T00:58:50.585Z,81.63
2019-05-28T00:59:50.569Z,81.73
2019-05-28T01:00:50.563Z,81.73
2019-05-28T01:01:50.552Z,81.93
2019-05-28T01:02:50.556Z,81.52
2019-05-28T01:03:50.525Z,82.03
2019-05-28T01:04:50.524Z,81.63
2019-05-28T01:05:50.502Z,82.03
2019-05-28T01:06:50.509Z,81.93
2019-05-28T01:07:50.504Z,82.54
2019-05-28T01:08:50.477Z,82.68
2019-05-28T01:09:50.467Z,82.44
2019-05-28T01:10:50.461Z,82.58
2019-05-28T01:11:50.440Z,82.78
2019-05-28T01:12:50.442Z,83.49
2019-05-28T01:13:50.420Z,83.29
2019-05-28T01:14:50.411Z,83.18
2019-05-28T01:15:50.421Z,83.59
2019-05-28T01:16:50.383Z,83.83
2019-05-28T01:17:50.386Z,83.94
2019-05-28T01:18:50.374Z,83.59
2019-05-28T01:19:50.361Z,84.24
2019-05-28T01:20:50.355Z,84.34
2019-05-28T01:21:50.339Z,84.34
2019-05-28T01:22:50.337Z,84.24
2019-05-28T01:23:50.309Z,84.24
2019-05-28T01:24:50.297Z,84.64
2019-05-28T01:25:50.318Z,84.78
2019-05-28T01:26:50.288Z,84.48
2019-05-28T01:27:50.287Z,84.58
2019-05-28T01:28:50.259Z,84.38
2019-05-28T01:29:50.251Z,84.78
2019-05-28T01:30:55.987Z,85.03
2019-05-28T01:31:51.221Z,84.58
2019-05-28T01:32:50.236Z,84.38
2019-05-28T01:33:50.206Z,84.48
2019-05-28T01:34:50.189Z,84.48
2019-05-28T01:35:50.182Z,84.52
2019-05-28T01:36:50.172Z,84.63
2019-05-28T01:37:50.170Z,84.32
2019-05-28T01:38:50.151Z,84.32
2019-05-28T01:39:50.141Z,84.32
2019-05-28T01:40:50.129Z,84.42
2019-05-28T01:41:50.122Z,84.42
2019-05-28T01:42:50.120Z,83.91
2019-05-28T01:43:50.096Z,84.22
2019-05-28T01:44:50.080Z,84.32
2019-05-28T01:45:50.071Z,84.01
2019-05-28T01:46:50.069Z,84.01
2019-05-28T01:47:50.085Z,84.32
2019-05-28T01:48:50.038Z,84.22
2019-05-28T01:49:50.028Z,84.56
2019-05-28T01:50:50.021Z,84.05
2019-05-28T01:51:50.012Z,84.56
2019-05-28T01:52:50.016Z,84.26
2019-05-28T01:53:49.996Z,84.36
2019-05-28T01:54:49.989Z,84.05
2019-05-28T01:55:49.972Z,84.56
2019-05-28T01:56:49.952Z,84.66
2019-05-28T01:57:49.958Z,84.50
2019-05-28T01:58:49.936Z,84.77
2019-05-28T01:59:49.931Z,84.56
2019-05-28T02:00:49.959Z,84.46
2019-05-28T02:01:49.973Z,84.60
2019-05-28T02:02:49.924Z,84.50
2019-05-28T02:03:49.881Z,84.66
2019-05-28T02:04:49.883Z,84.60
2019-05-28T02:05:49.866Z,85.01
2019-05-28T02:06:49.865Z,84.66
2019-05-28T02:07:49.835Z,84.50
2019-05-28T02:08:49.869Z,84.60
2019-05-28T02:09:49.815Z,84.80
2019-05-28T02:10:49.828Z,85.31
2019-05-28T02:11:49.804Z,85.21
2019-05-28T02:12:49.793Z,84.60
2019-05-28T02:13:49.808Z,85.82
2019-05-28T02:14:49.765Z,85.21
2019-05-28T02:15:49.756Z,84.80
2019-05-28T02:16:49.752Z,85.72
2019-05-28T02:17:49.747Z,85.52
2019-05-28T02:18:49.741Z,85.62
2019-05-28T02:19:49.719Z,85.62
2019-05-28T02:20:49.700Z,85.31
2019-05-28T02:21:49.703Z,85.41
2019-05-28T02:22:49.704Z,85.76
2019-05-28T02:23:49.678Z,85.76
2019-05-28T02:24:49.681Z,85.66
2019-05-28T02:25:49.653Z,85.52
2019-05-28T02:26:49.635Z,85.86
2019-05-28T02:27:49.657Z,85.55
2019-05-28T02:28:49.624Z,85.62
2019-05-28T02:29:49.650Z,85.25
2019-05-28T02:30:49.599Z,84.54
2019-05-28T02:31:49.590Z,84.03
2019-05-28T02:32:49.604Z,83.83
2019-05-28T02:33:49.570Z,84.13
2019-05-28T02:34:49.560Z,84.13
2019-05-28T02:35:49.599Z,83.99
2019-05-28T02:36:49.537Z,83.89
2019-05-28T02:37:49.535Z,83.99
2019-05-28T02:38:49.527Z,83.89
2019-05-28T02:39:49.505Z,84.23
2019-05-28T02:40:49.490Z,84.20
2019-05-28T02:41:49.491Z,84.30
2019-05-28T02:42:49.472Z,84.20
2019-05-28T02:43:49.515Z,83.99
2019-05-28T02:44:49.457Z,84.09
2019-05-28T02:45:49.444Z,84.03
2019-05-28T02:46:49.432Z,84.40
2019-05-28T02:47:49.417Z,84.74
2019-05-28T02:48:49.417Z,85.35
2019-05-28T02:49:49.395Z,85.35
2019-05-28T02:50:49.389Z,86.07
2019-05-28T02:51:49.384Z,85.15
2019-05-28T02:52:49.377Z,84.84
2019-05-28T02:53:49.364Z,84.74
2019-05-28T02:54:49.347Z,84.54
2019-05-28T02:55:49.337Z,84.64
2019-05-28T02:56:49.339Z,83.93
2019-05-28T02:57:49.316Z,84.54
2019-05-28T02:58:49.319Z,84.54
2019-05-28T02:59:49.295Z,84.74
2019-05-28T03:00:49.281Z,84.54
2019-05-28T03:01:49.270Z,84.64
2019-05-28T03:02:49.266Z,84.68
2019-05-28T03:03:49.265Z,84.99
2019-05-28T03:04:49.298Z,85.66
2019-05-28T03:05:49.231Z,85.76
2019-05-28T03:06:49.246Z,85.49
2019-05-28T03:07:49.213Z,86.21
2019-05-28T03:08:49.250Z,86.31
2019-05-28T03:09:49.200Z,85.80
2019-05-28T03:11:04.897Z,86.00
2019-05-28T03:11:50.165Z,86.10
2019-05-28T03:12:50.049Z,85.90
2019-05-28T03:13:49.157Z,86.21
2019-05-28T03:14:49.139Z,85.80
2019-05-28T03:15:49.144Z,86.51
2019-05-28T03:16:49.109Z,86.10
2019-05-28T03:17:49.100Z,85.90
2019-05-28T03:18:49.107Z,86.10
2019-05-28T03:19:49.083Z,86.10
2019-05-28T03:20:49.071Z,85.70
2019-05-28T03:21:49.065Z,85.60
2019-05-28T03:22:49.045Z,85.55
2019-05-28T03:23:49.058Z,85.46
2019-05-28T03:24:49.031Z,85.60
2019-05-28T03:25:49.044Z,85.70
2019-05-28T03:26:49.008Z,85.90
2019-05-28T03:27:48.990Z,86.00
2019-05-28T03:28:48.981Z,85.70
2019-05-28T03:29:48.985Z,85.70
2019-05-28T03:30:48.977Z,85.80
2019-05-28T03:32:06.886Z,86.00
2019-05-28T03:32:49.940Z,85.90
2019-05-28T03:33:48.933Z,85.29
2019-05-28T03:34:48.930Z,86.10
2019-05-28T03:35:48.909Z,84.95
2019-05-28T03:36:48.895Z,85.05
2019-05-28T03:37:48.889Z,85.05
2019-05-28T03:38:48.882Z,84.74
2019-05-28T03:39:48.889Z,84.54
2019-05-28T03:40:48.853Z,84.54
2019-05-28T03:41:48.840Z,84.64
2019-05-28T03:42:48.834Z,84.13
2019-05-28T03:43:48.828Z,84.34
2019-05-28T03:44:48.828Z,84.23
2019-05-28T03:45:48.808Z,84.23
2019-05-28T03:46:48.785Z,84.23
2019-05-28T03:47:48.780Z,84.13
2019-05-28T03:48:48.792Z,84.13
2019-05-28T03:49:48.792Z,84.13
2019-05-28T03:50:48.755Z,83.99
2019-05-28T03:51:48.745Z,84.09
2019-05-28T03:52:48.724Z,83.89
2019-05-28T03:53:48.716Z,83.08
2019-05-28T03:54:48.710Z,83.59
2019-05-28T03:55:48.689Z,83.79
2019-05-28T03:56:48.684Z,83.59
2019-05-28T03:57:48.673Z,83.18
2019-05-28T03:58:48.656Z,83.48
2019-05-28T03:59:48.674Z,83.38
2019-05-28T04:00:48.655Z,83.45
2019-05-28T04:01:48.656Z,83.04
2019-05-28T04:02:48.618Z,83.08
2019-05-28T04:03:48.605Z,82.94
2019-05-28T04:04:48.609Z,83.34
2019-05-28T04:05:48.587Z,83.54
2019-05-28T04:06:48.576Z,83.24
2019-05-28T04:07:48.556Z,83.04
2019-05-28T04:08:48.559Z,83.45
2019-05-28T04:09:48.549Z,83.75
2019-05-28T04:10:48.538Z,83.00
2019-05-28T04:11:48.522Z,82.50
2019-05-28T04:12:48.502Z,82.39
2019-05-28T04:13:48.491Z,81.99
2019-05-28T04:14:48.498Z,81.78
2019-05-28T04:15:48.485Z,82.19
2019-05-28T04:16:48.471Z,81.99
2019-05-28T04:17:48.465Z,81.88
2019-05-28T04:18:48.438Z,81.88
2019-05-28T04:19:48.471Z,82.19
2019-05-28T04:20:48.416Z,81.27
2019-05-28T04:21:48.419Z,80.66
2019-05-28T04:22:48.406Z,80.57
2019-05-28T04:23:48.407Z,80.16
2019-05-28T04:24:48.398Z,80.93
2019-05-28T04:25:48.373Z,80.43
2019-05-28T04:26:48.351Z,81.04
2019-05-28T04:27:48.382Z,81.04
2019-05-28T04:28:48.341Z,79.92
2019-05-28T04:29:48.365Z,80.02
2019-05-28T04:30:48.310Z,80.12
2019-05-28T04:31:48.301Z,79.96
2019-05-28T04:32:48.287Z,79.92
2019-05-28T04:33:48.277Z,79.78
2019-05-28T04:34:48.289Z,79.92
2019-05-28T04:35:48.285Z,79.82
2019-05-28T04:36:48.250Z,79.92
2019-05-28T04:37:48.242Z,79.58
2019-05-28T04:38:48.231Z,79.61
2019-05-28T04:39:48.213Z,79.88
2019-05-28T04:40:48.213Z,79.38
2019-05-28T04:41:48.189Z,79.38
2019-05-28T04:42:48.267Z,79.68
2019-05-28T04:43:48.176Z,79.68
2019-05-28T04:44:48.159Z,79.88
2019-05-28T04:45:48.167Z,79.58
2019-05-28T04:46:48.155Z,79.54
2019-05-28T04:47:48.140Z,79.47
2019-05-28T04:48:48.126Z,78.93
2019-05-28T04:49:48.115Z,78.93
2019-05-28T04:50:48.114Z,78.73
2019-05-28T04:51:48.085Z,78.22
2019-05-28T04:52:48.082Z,78.33
2019-05-28T04:53:48.062Z,77.88
2019-05-28T04:54:48.059Z,77.82
2019-05-28T04:55:48.078Z,77.82
2019-05-28T04:56:48.039Z,77.17
2019-05-28T04:57:48.033Z,76.97
2019-05-28T04:58:48.015Z,76.67
2019-05-28T04:59:47.998Z,76.26
2019-05-28T05:00:47.996Z,76.56
2019-05-28T05:01:48.022Z,76.03
2019-05-28T05:02:58.753Z,75.72
2019-05-28T05:03:48.963Z,75.62
2019-05-28T05:04:47.953Z,75.31
2019-05-28T05:05:47.937Z,75.31
2019-05-28T05:06:48.096Z,75.31
2019-05-28T05:07:47.924Z,75.38
2019-05-28T05:08:47.918Z,74.47
2019-05-28T05:09:47.912Z,75.28
2019-05-28T05:10:47.885Z,74.57
2019-05-28T05:11:47.872Z,74.47
2019-05-28T05:12:47.874Z,74.13
2019-05-28T05:13:47.852Z,73.72
2019-05-28T05:14:47.849Z,73.93
2019-05-28T05:15:47.838Z,73.49
2019-05-28T05:16:47.821Z,73.08
2019-05-28T05:17:47.821Z,73.15
2019-05-28T05:18:47.808Z,72.14
2019-05-28T05:19:47.790Z,72.44
2019-05-28T05:20:47.784Z,72.00
2019-05-28T05:21:47.770Z,71.60
2019-05-28T05:22:47.766Z,71.06
2019-05-28T05:23:47.752Z,70.76
2019-05-28T05:24:47.736Z,70.66
2019-05-28T05:25:47.729Z,70.62
2019-05-28T05:26:47.729Z,70.19
2019-05-28T05:27:47.723Z,69.68
2019-05-28T05:28:47.706Z,69.25
2019-05-28T05:29:47.702Z,68.65
2019-05-28T05:30:47.672Z,68.54
2019-05-28T05:31:47.670Z,68.31
2019-05-28T05:32:47.680Z,68.65
2019-05-28T05:33:47.646Z,68.44
2019-05-28T05:34:47.627Z,68.11
2019-05-28T05:35:47.624Z,68.14
2019-05-28T05:36:47.606Z,68.11
2019-05-28T05:37:47.612Z,68.14
2019-05-28T05:38:47.592Z,67.40
2019-05-28T05:39:49.004Z,68.14
2019-05-28T05:40:47.571Z,67.94
2019-05-28T05:41:47.561Z,68.14
2019-05-28T05:42:47.558Z,68.34
2019-05-28T05:43:47.532Z,68.24
2019-05-28T05:44:47.526Z,68.04
2019-05-28T05:45:47.519Z,67.84
2019-05-28T05:46:47.509Z,67.54
2019-05-28T05:47:47.516Z,66.06
2019-05-28T05:48:47.479Z,65.22
2019-05-28T05:49:47.468Z,62.92
2019-05-28T05:50:47.465Z,62.39
2019-05-28T05:51:47.455Z,61.49
2019-05-28T05:52:47.460Z,60.39
2019-05-28T05:53:47.723Z,59.06
2019-05-28T05:54:47.434Z,58.43
2019-05-28T05:55:47.405Z,57.40
2019-05-28T05:56:47.394Z,56.70
2019-05-28T05:57:47.402Z,57.00
2019-05-28T05:58:47.381Z,56.50
2019-05-28T05:59:47.369Z,55.60
2019-05-28T06:00:47.379Z,55.37
2019-05-28T06:01:47.348Z,55.85
2019-05-28T06:02:47.343Z,54.92
2019-05-28T06:03:47.323Z,53.72
2019-05-28T06:04:47.334Z,53.82
2019-05-28T06:05:47.308Z,54.69
2019-05-28T06:06:47.289Z,54.27
2019-05-28T06:07:47.332Z,53.69
2019-05-28T06:08:47.269Z,53.67
2019-05-28T06:09:47.257Z,53.39
2019-05-28T06:10:47.251Z,54.64
2019-05-28T06:11:47.239Z,55.47
2019-05-28T06:12:47.245Z,55.57
2019-05-28T06:13:47.220Z,54.87
2019-05-28T06:14:47.220Z,54.77
2019-05-28T06:15:47.198Z,54.27
2019-05-28T06:16:47.187Z,54.17
2019-05-28T06:17:47.194Z,55.17
2019-05-28T06:18:47.258Z,54.67
2019-05-28T06:19:47.159Z,55.35
2019-05-28T06:20:47.163Z,54.74
2019-05-28T06:21:47.133Z,54.12
2019-05-28T06:22:47.127Z,53.39
2019-05-28T06:23:47.147Z,53.47
2019-05-28T06:24:47.115Z,52.84
2019-05-28T06:25:47.101Z,52.00
2019-05-28T06:26:47.076Z,51.07
2019-05-28T06:27:47.115Z,50.27
2019-05-28T06:28:47.069Z,49.57
2019-05-28T06:29:47.043Z,49.35
2019-05-28T06:30:47.036Z,48.93
2019-05-28T06:31:47.060Z,48.53
2019-05-28T06:32:47.036Z,48.75
2019-05-28T06:33:56.195Z,49.95
2019-05-28T06:34:48.049Z,51.59
2019-05-28T06:35:46.980Z,52.62
2019-05-28T06:36:47.006Z,52.94
2019-05-28T06:37:46.963Z,53.69
2019-05-28T06:38:46.963Z,55.40
2019-05-28T06:39:46.950Z,55.45
2019-05-28T06:40:46.925Z,55.28
2019-05-28T06:41:46.913Z,55.78
2019-05-28T06:42:46.908Z,55.80
2019-05-28T06:43:46.911Z,55.91
2019-05-28T06:44:46.906Z,55.33
2019-05-28T06:45:46.881Z,55.83
2019-05-28T06:46:46.865Z,56.03
2019-05-28T06:47:46.848Z,56.63
2019-05-28T06:48:46.853Z,56.13
2019-05-28T06:49:46.832Z,55.20
2019-05-28T06:50:46.830Z,55.30
2019-05-28T06:51:46.831Z,53.34
2019-05-28T06:52:46.799Z,52.92
2019-05-28T06:53:46.802Z,52.59
2019-05-28T06:54:46.785Z,51.72
2019-05-28T06:55:46.772Z,49.90
2019-05-28T06:56:46.769Z,49.55
2019-05-28T06:57:46.761Z,49.07
2019-05-28T06:58:46.746Z,49.67
2019-05-28T06:59:46.722Z,50.62
2019-05-28T07:00:46.715Z,51.04
2019-05-28T07:01:46.721Z,51.37
2019-05-28T07:02:46.708Z,51.87
2019-05-28T07:03:46.701Z,52.29
2019-05-28T07:04:46.681Z,52.89
2019-05-28T07:05:46.664Z,52.69
2019-05-28T07:06:46.653Z,51.79
2019-05-28T07:07:46.640Z,51.77
2019-05-28T07:08:46.653Z,51.57
2019-05-28T07:09:46.627Z,51.89
2019-05-28T07:10:57.292Z,51.79
2019-05-28T07:11:47.596Z,51.82
2019-05-28T07:12:46.589Z,52.94
2019-05-28T07:13:46.612Z,52.75
2019-05-28T07:14:46.681Z,52.87
2019-05-28T07:15:46.563Z,53.57
2019-05-28T07:16:53.397Z,53.97
2019-05-28T07:17:47.539Z,54.17
2019-05-28T07:18:46.522Z,53.47
2019-05-28T07:19:46.522Z,54.47
2019-05-28T07:20:46.520Z,53.97
2019-05-28T07:21:46.498Z,54.17
2019-05-28T07:22:46.486Z,54.27
2019-05-28T07:23:46.476Z,54.27
2019-05-28T07:24:46.476Z,53.77
2019-05-28T07:25:46.453Z,53.67
2019-05-28T07:26:46.526Z,53.77
2019-05-28T07:27:46.439Z,53.64
2019-05-28T07:28:46.424Z,53.85
2019-05-28T07:29:46.423Z,53.42
2019-05-28T07:30:46.397Z,53.32
2019-05-28T07:31:46.396Z,53.69
2019-05-28T07:32:46.402Z,53.62
2019-05-28T07:33:46.372Z,54.32
2019-05-28T07:34:46.377Z,53.50
2019-05-28T07:35:46.595Z,53.62
2019-05-28T07:36:46.340Z,52.82
2019-05-28T07:37:46.333Z,52.80
2019-05-28T07:38:46.313Z,51.79
2019-05-28T07:39:46.321Z,51.59
2019-05-28T07:40:46.302Z,51.17
2019-05-28T07:41:46.292Z,50.24
2019-05-28T07:42:46.275Z,49.62
2019-05-28T07:43:46.257Z,50.12
2019-05-28T07:44:46.260Z,50.22
2019-05-28T07:45:46.237Z,50.29
2019-05-28T07:46:46.231Z,50.20
2019-05-28T07:47:46.220Z,49.47
2019-05-28T07:48:46.219Z,49.19
2019-05-28T07:49:46.227Z,48.79
2019-05-28T07:50:46.186Z,49.40
2019-05-28T07:51:46.177Z,49.47
2019-05-28T07:52:46.174Z,49.17
2019-05-28T07:53:46.154Z,49.29
2019-05-28T07:54:46.158Z,49.09
2019-05-28T07:55:46.164Z,49.49
2019-05-28T07:56:46.120Z,48.97
2019-05-28T07:57:46.149Z,48.57
2019-05-28T07:58:46.109Z,48.35
2019-05-28T07:59:46.100Z,48.05
2019-05-28T08:00:46.099Z,47.55
2019-05-28T08:01:46.094Z,46.33
2019-05-28T08:02:46.054Z,46.28
2019-05-28T08:03:46.068Z,46.08
2019-05-28T08:04:47.489Z,45.26
2019-05-28T08:05:46.041Z,46.46
2019-05-28T08:06:54.551Z,45.66
2019-05-28T08:07:47.009Z,45.36
2019-05-28T08:08:46.003Z,45.17
2019-05-28T08:09:45.989Z,44.24
2019-05-28T08:10:45.985Z,44.24
2019-05-28T08:11:45.961Z,44.53
2019-05-28T08:12:45.956Z,44.01
2019-05-28T08:13:45.950Z,43.29
2019-05-28T08:14:45.941Z,42.89
2019-05-28T08:15:45.942Z,43.49
2019-05-28T08:16:52.800Z,43.29
2019-05-28T08:17:46.900Z,42.77
2019-05-28T08:18:45.906Z,41.77
2019-05-28T08:19:45.886Z,42.55
2019-05-28T08:20:45.898Z,42.33
2019-05-28T08:21:45.863Z,41.82
2019-05-28T08:22:46.043Z,41.89
2019-05-28T08:23:45.842Z,40.96
2019-05-28T08:24:45.827Z,41.16
2019-05-28T08:25:47.858Z,41.04
2019-05-28T08:26:45.832Z,40.56
2019-05-28T08:27:45.801Z,40.78
2019-05-28T08:28:45.794Z,42.19
2019-05-28T08:29:45.920Z,42.71
2019-05-28T08:30:45.771Z,41.93
2019-05-28T08:31:45.771Z,42.63
2019-05-28T08:32:45.751Z,40.76
2019-05-28T08:33:45.741Z,41.20
2019-05-28T08:34:45.726Z,41.52
2019-05-28T08:35:45.713Z,42.53
2019-05-28T08:37:01.835Z,43.65
2019-05-28T08:37:46.701Z,42.53
2019-05-28T08:38:45.692Z,43.23
2019-05-28T08:39:45.682Z,42.51
2019-05-28T08:40:45.681Z,41.82
2019-05-28T08:41:45.676Z,42.41
2019-05-28T08:42:45.659Z,42.61
2019-05-28T08:43:45.634Z,42.73
2019-05-28T08:44:45.647Z,42.21
2019-05-28T08:45:45.618Z,42.29
2019-05-28T08:46:45.620Z,40.70
2019-05-28T08:47:45.589Z,41.69
2019-05-28T08:48:45.583Z,39.80
2019-05-28T08:49:45.570Z,40.02
2019-05-28T08:50:45.571Z,40.02
2019-05-28T08:51:45.594Z,40.12
2019-05-28T08:52:45.568Z,40.04
2019-05-28T08:53:45.537Z,39.44
2019-05-28T08:54:45.523Z,39.04
2019-05-28T08:55:45.518Z,39.03
2019-05-28T08:56:45.501Z,39.03
2019-05-28T08:57:45.509Z,39.44
2019-05-28T08:58:45.481Z,39.44
2019-05-28T08:59:45.517Z,40.54
2019-05-28T09:00:45.461Z,39.94
2019-05-28T09:01:45.445Z,40.64
2019-05-28T09:02:45.470Z,40.12
2019-05-28T09:03:45.430Z,40.12
2019-05-28T09:04:45.430Z,40.20
2019-05-28T09:05:45.413Z,39.70
2019-05-28T09:06:45.408Z,40.50
2019-05-28T09:07:45.392Z,39.01
2019-05-28T09:08:45.394Z,39.01
2019-05-28T09:09:45.368Z,38.82
2019-05-28T09:10:45.358Z,40.64
2019-05-28T09:11:45.347Z,40.34
2019-05-28T09:12:45.341Z,41.14
2019-05-28T09:13:45.343Z,41.33
2019-05-28T09:14:55.570Z,41.63
2019-05-28T09:15:46.302Z,42.45
2019-05-28T09:16:45.300Z,42.27
2019-05-28T09:17:45.288Z,42.69
2019-05-28T09:18:45.294Z,42.73
2019-05-28T09:19:45.264Z,43.03
2019-05-28T09:20:45.319Z,44.15
2019-05-28T09:21:45.240Z,44.25
2019-05-28T09:22:45.238Z,44.25
2019-05-28T09:23:45.224Z,43.35
2019-05-28T09:24:45.235Z,43.65
2019-05-28T09:25:45.202Z,43.48
2019-05-28T09:26:45.201Z,44.39
2019-05-28T09:27:45.181Z,45.27
2019-05-28T09:28:45.177Z,45.67
2019-05-28T09:29:45.171Z,45.37
2019-05-28T09:30:45.161Z,45.35
2019-05-28T09:31:45.155Z,45.45
2019-05-28T09:32:45.137Z,46.77
2019-05-28T09:33:45.118Z,45.15
2019-05-28T09:34:45.124Z,45.15
2019-05-28T09:36:03.785Z,45.25
2019-05-28T09:36:46.093Z,44.97
2019-05-28T09:37:45.079Z,44.07
2019-05-28T09:38:45.069Z,44.97
2019-05-28T09:39:45.085Z,44.47
2019-05-28T09:40:50.732Z,46.19
2019-05-28T09:41:46.029Z,46.89
2019-05-28T09:42:45.026Z,46.69
2019-05-28T09:43:45.018Z,46.57
2019-05-28T09:44:45.014Z,45.47
2019-05-28T09:45:45.035Z,45.27
2019-05-28T09:46:44.986Z,46.77
2019-05-28T09:47:44.995Z,46.55
2019-05-28T09:48:44.968Z,47.37
2019-05-28T09:49:44.957Z,47.27
2019-05-28T09:50:44.950Z,46.87
2019-05-28T09:51:44.925Z,46.85
2019-05-28T09:52:54.487Z,47.15
2019-05-28T09:53:45.904Z,46.65
2019-05-28T09:54:44.903Z,46.95
2019-05-28T09:55:44.916Z,47.15
2019-05-28T09:56:44.913Z,46.95
2019-05-28T09:57:47.954Z,46.45
2019-05-28T09:58:44.865Z,47.09
2019-05-28T09:59:44.844Z,47.19
2019-05-28T10:00:57.625Z,47.09
2019-05-28T10:01:45.836Z,47.19
2019-05-28T10:02:44.820Z,47.79
2019-05-28T10:03:44.810Z,47.30
2019-05-28T10:04:49.707Z,47.19
2019-05-28T10:05:58.561Z,46.97
2019-05-28T10:06:45.776Z,47.47
2019-05-28T10:07:44.769Z,47.47
2019-05-28T10:08:44.802Z,46.75
2019-05-28T10:09:44.743Z,47.13
2019-05-28T10:10:44.728Z,46.13
2019-05-28T10:11:44.737Z,45.13
2019-05-28T10:12:44.722Z,45.23
2019-05-28T10:13:44.697Z,45.39
2019-05-28T10:14:44.690Z,44.84
2019-05-28T10:15:44.708Z,43.95
2019-05-28T10:16:44.688Z,44.23
2019-05-28T10:17:44.660Z,43.23
2019-05-28T10:18:44.653Z,42.71
2019-05-28T10:19:44.633Z,42.29
2019-05-28T10:20:44.643Z,41.36
2019-05-28T10:21:44.638Z,42.03
2019-05-28T10:22:44.625Z,41.83
2019-05-28T10:23:44.591Z,41.74
2019-05-28T10:24:44.589Z,42.86
2019-05-28T10:25:44.567Z,42.69
2019-05-28T10:26:44.577Z,43.16
2019-05-28T10:27:59.284Z,42.35
2019-05-28T10:28:45.547Z,42.55
2019-05-28T10:29:44.534Z,42.35
2019-05-28T10:30:44.527Z,42.17
2019-05-28T10:31:44.541Z,42.07
2019-05-28T10:32:44.498Z,42.35
2019-05-28T10:33:44.486Z,42.03
2019-05-28T10:35:02.496Z,41.04
2019-05-28T10:35:45.491Z,41.14
2019-05-28T10:36:44.473Z,40.82
2019-05-28T10:37:44.459Z,41.09
2019-05-28T10:38:44.450Z,40.26
2019-05-28T10:39:44.432Z,40.36
2019-05-28T10:40:44.424Z,40.55
2019-05-28T10:41:44.420Z,40.44
2019-05-28T10:42:44.410Z,40.26
2019-05-28T10:43:44.385Z,39.79
2019-05-28T10:44:45.359Z,39.17
2019-05-28T10:45:44.380Z,37.75
2019-05-28T10:46:44.363Z,37.62
2019-05-28T10:47:44.374Z,36.57
2019-05-28T10:48:44.339Z,35.35
2019-05-28T10:49:44.335Z,35.31
2019-05-28T10:50:44.313Z,35.52
2019-05-28T10:51:44.309Z,35.33
2019-05-28T10:52:44.342Z,35.15
2019-05-28T10:53:44.292Z,35.27
2019-05-28T10:54:44.294Z,34.88
2019-05-28T10:55:44.262Z,34.69
2019-05-28T10:56:44.254Z,35.42
2019-05-28T10:57:44.269Z,36.72
2019-05-28T10:58:44.242Z,37.10
2019-05-28T10:59:44.244Z,36.21
2019-05-28T11:00:44.225Z,36.64
2019-05-28T11:01:44.213Z,37.12
2019-05-28T11:02:44.224Z,36.10
2019-05-28T11:03:47.071Z,36.77
2019-05-28T11:04:44.194Z,35.27
2019-05-28T11:05:44.170Z,36.22
2019-05-28T11:06:51.845Z,34.33
2019-05-28T11:07:45.151Z,34.72
2019-05-28T11:08:44.154Z,34.43
2019-05-28T11:09:44.132Z,34.13
2019-05-28T11:10:44.137Z,33.15
2019-05-28T11:11:44.114Z,34.41
2019-05-28T11:12:44.103Z,33.84
2019-05-28T11:13:53.177Z,34.05
2019-05-28T11:14:45.077Z,35.57
2019-05-28T11:15:44.104Z,35.78
2019-05-28T11:16:44.064Z,36.43
2019-05-28T11:17:44.051Z,37.53
2019-05-28T11:18:44.065Z,36.96
2019-05-28T11:19:44.032Z,37.17
2019-05-28T11:20:44.029Z,36.91
2019-05-28T11:21:44.020Z,37.69
2019-05-28T11:22:43.998Z,38.18
2019-05-28T11:23:44.003Z,38.78
2019-05-28T11:24:43.983Z,37.79
2019-05-28T11:25:43.973Z,37.70
2019-05-28T11:26:43.982Z,38.22
2019-05-28T11:27:43.948Z,38.64
2019-05-28T11:28:43.971Z,39.05
2019-05-28T11:29:43.947Z,38.47
2019-05-28T11:30:43.925Z,39.09
2019-05-28T11:31:43.916Z,37.66
2019-05-28T11:32:43.915Z,37.82
2019-05-28T11:33:43.904Z,37.59
2019-05-28T11:34:43.895Z,37.88
2019-05-28T11:35:43.897Z,37.09
2019-05-28T11:36:43.857Z,37.26
2019-05-28T11:37:43.845Z,36.76
2019-05-28T11:38:43.843Z,36.44
2019-05-28T11:39:43.842Z,36.64
2019-05-28T11:40:43.819Z,37.15
2019-05-28T11:41:43.807Z,36.99
2019-05-28T11:42:43.801Z,36.63
2019-05-28T11:43:43.791Z,37.34
2019-05-28T11:44:43.827Z,39.07
2019-05-28T11:45:43.778Z,39.59
2019-05-28T11:46:43.758Z,39.69
2019-05-28T11:47:43.753Z,40.20
2019-05-28T11:48:43.739Z,41.09
2019-05-28T11:49:43.740Z,40.50
2019-05-28T11:50:43.752Z,41.69
2019-05-28T11:51:43.722Z,40.30
2019-05-28T11:52:43.702Z,41.20
2019-05-28T11:53:43.693Z,41.20
2019-05-28T11:54:43.686Z,40.90
2019-05-28T11:55:43.665Z,41.79
2019-05-28T11:56:43.664Z,41.02
2019-05-28T11:57:43.653Z,41.03
2019-05-28T11:58:43.640Z,40.14
2019-05-28T11:59:43.644Z,40.04
2019-05-28T12:00:43.623Z,40.62
2019-05-28T12:01:43.607Z,39.31
2019-05-28T12:02:43.601Z,39.90
2019-05-28T12:03:43.592Z,40.42
2019-05-28T12:04:43.596Z,40.10
2019-05-28T12:05:43.570Z,41.00
2019-05-28T12:06:43.555Z,40.92
2019-05-28T12:07:43.556Z,41.02
2019-05-28T12:08:43.530Z,40.52
2019-05-28T12:09:43.532Z,40.10
2019-05-28T12:10:43.520Z,40.30
2019-05-28T12:11:43.504Z,40.50
2019-05-28T12:12:43.494Z,40.20
2019-05-28T12:13:43.475Z,39.70
2019-05-28T12:14:43.492Z,40.22
2019-05-28T12:15:43.467Z,41.12
2019-05-28T12:16:43.472Z,40.62
2019-05-28T12:17:45.550Z,41.02
2019-05-28T12:18:43.426Z,40.50
2019-05-28T12:19:43.425Z,40.22
2019-05-28T12:20:43.410Z,41.16
2019-05-28T12:21:43.396Z,41.06
2019-05-28T12:22:43.397Z,41.83
2019-05-28T12:23:43.383Z,40.34
2019-05-28T12:24:43.383Z,40.22
2019-05-28T12:25:43.363Z,40.12
2019-05-28T12:26:43.351Z,40.40
2019-05-28T12:27:43.342Z,40.70
2019-05-28T12:28:43.349Z,40.22
2019-05-28T12:29:51.839Z,40.72
2019-05-28T12:30:44.299Z,41.09
2019-05-28T12:31:43.298Z,40.72
2019-05-28T12:32:43.286Z,41.00
2019-05-28T12:33:43.294Z,41.09
2019-05-28T12:34:43.289Z,40.82
2019-05-28T12:35:43.322Z,40.22
2019-05-28T12:36:43.248Z,40.32
2019-05-28T12:37:49.286Z,40.50
2019-05-28T12:38:44.219Z,40.10
2019-05-28T12:39:43.234Z,40.10
2019-05-28T12:40:47.789Z,39.21
2019-05-28T12:42:00.807Z,39.18
2019-05-28T12:42:44.182Z,39.86
2019-05-28T12:43:43.175Z,40.08
2019-05-28T12:44:43.165Z,40.70
2019-05-28T12:45:43.158Z,40.00
2019-05-28T12:46:43.144Z,39.37
2019-05-28T12:47:43.157Z,38.64
2019-05-28T12:48:43.125Z,38.20
2019-05-28T12:49:43.166Z,37.67
2019-05-28T12:50:43.095Z,37.53
2019-05-28T12:51:43.084Z,37.20